Windhoek — 3FWJ3 — position and weather

sailwx.info

Track history (hours):
 
Tides and Currents Weather Stations Pressure Air Temp Water Temp Dewpoint Dewpoint Depression Visibility Wind Speed Wind Dir Waves Ship Positions

Windhoek

Last reported at 2017-Aug-18 19:42 UTC. Time now 2017-Aug-19 05:27 UTC.
Position N 36°44' W 011°38'.

Length 172 m; draft 9.5 m.

Type: Ship (hazmat cat C). MMSI: 370431000.

Date/timePositionNaut miles runAvg speedWind from/ knotsBaromVisibWave heightAir tempDewpointWater temp
2017-Aug-18 19:42N 36°44' W 011°38'315.2
2017-Aug-18 19:30N 36°47' W 011°36'3615.1
2017-Aug-18 17:06N 37°19' W 011°16'318.0
2017-Aug-18 16:54N 37°22' W 011°14'1116.5
2017-Aug-18 16:13N 37°32' W 011°07'314.4
2017-Aug-18 16:00N 37°35' W 011°06'815.3
2017-Aug-18 15:30N 37°42' W 011°01'815.3
2017-Aug-18 15:00N 37°49' W 010°57'1515.5
2017-Aug-18 14:00N 38°02' W 010°48'815.3
2017-Aug-18 13:30N 38°09' W 010°43'815.3
2017-Aug-18 13:00N 38°16' W 010°39'714.9
2017-Aug-18 12:30N 38°23' W 010°35'715.0
2017-Aug-18 12:00N 38°29' W 010°30'814.9
2017-Aug-18 11:28N 38°36' W 010°26'714.7
2017-Aug-18 11:00N 38°43' W 010°22'714.0
2017-Aug-18 10:30N 38°49' W 010°18'713.8
2017-Aug-18 10:00N 38°55' W 010°14'713.8
2017-Aug-18 09:30N 39°01' W 010°10'714.1
2017-Aug-18 09:00N 39°07' W 010°06'714.0
2017-Aug-18 08:30N 39°14' W 010°02'714.5
2017-Aug-18 08:00N 39°20' W 009°58'714.2
2017-Aug-18 07:30N 39°27' W 009°54'714.4
2017-Aug-18 07:00N 39°33' W 009°49'714.0
2017-Aug-18 06:30N 39°39' W 009°45'714.1
2017-Aug-18 05:59N 39°46' W 009°41'3514.1
2017-Aug-18 03:32N 40°16' W 009°19'3914.1
2017-Aug-18 00:46N 40°51' W 008°57'19 0.4
2017-Aug-16 05:14N 41°08' W 008°47'0 0.1
2017-Aug-16 05:00N 41°08' W 008°47'15 7.2
2017-Aug-16 02:55N 40°55' W 008°53'713.4
2017-Aug-16 02:23N 40°48' W 008°57'513.6
2017-Aug-16 02:00N 40°43' W 008°60'713.6
2017-Aug-16 01:30N 40°37' W 009°03'713.8
2017-Aug-16 01:00N 40°31' W 009°07'1313.6
2017-Aug-16 00:03N 40°19' W 009°14'113.6
2017-Aug-15 23:58N 40°18' W 009°15'713.6
2017-Aug-15 23:26N 40°11' W 009°19'613.3
2017-Aug-15 23:00N 40°06' W 009°22'713.1
2017-Aug-15 22:29N 39°60' W 009°26'613.2
2017-Aug-15 22:00N 39°54' W 009°29'613.0
2017-Aug-15 21:31N 39°48' W 009°33'713.2
2017-Aug-15 21:01N 39°42' W 009°36'713.2
2017-Aug-15 20:30N 39°36' W 009°40'612.9
2017-Aug-15 20:01N 39°30' W 009°43'713.3
2017-Aug-15 19:31N 39°24' W 009°47'713.4
2017-Aug-15 19:00N 39°18' W 009°50'713.3
2017-Aug-15 18:31N 39°12' W 009°51'713.5
2017-Aug-15 18:00N 39°05' W 009°51'713.5
2017-Aug-15 17:30N 38°58' W 009°51'713.6
2017-Aug-15 17:01N 38°51' W 009°51'917.5
2017-Aug-15 16:31N 38°43' W 009°51'816.3
2017-Aug-15 16:00N 38°37' W 009°43'816.1
2017-Aug-15 15:30N 38°36' W 009°32'713.1
2017-Aug-15 15:00N 38°37' W 009°24'612.2
2017-Aug-15 14:30N 38°40' W 009°18'4 7.2
2017-Aug-15 14:00N 38°41' W 009°14'510.4
2017-Aug-15 13:30N 38°43' W 009°07'1 0.9
2017-Aug-15 12:58N 38°43' W 009°07'0 0.0
2017-Aug-15 12:30N 38°43' W 009°07'0 0.0
2017-Aug-15 11:58N 38°43' W 009°07'0 0.0
2017-Aug-15 11:28N 38°43' W 009°07'0 0.0
2017-Aug-15 11:00N 38°43' W 009°07'0 0.0
2017-Aug-15 10:30N 38°43' W 009°07'0 0.0
2017-Aug-15 09:54N 38°43' W 009°07'0 0.0
2017-Aug-15 09:27N 38°43' W 009°07'0 0.0
2017-Aug-15 09:00N 38°43' W 009°07'0 0.0
2017-Aug-15 08:28N 38°43' W 009°07'0 0.0
2017-Aug-15 08:01N 38°43' W 009°07'0 0.0
2017-Aug-15 07:16N 38°43' W 009°07'0 0.0
2017-Aug-15 06:57N 38°43' W 009°07'0 0.0
2017-Aug-15 06:30N 38°43' W 009°07'0 0.0
2017-Aug-15 06:00N 38°43' W 009°07'0 0.0
2017-Aug-15 05:22N 38°43' W 009°07'0 0.0
2017-Aug-15 05:00N 38°43' W 009°07'0 0.0
2017-Aug-15 04:27N 38°43' W 009°07'0 0.0
2017-Aug-15 04:00N 38°43' W 009°07'0 0.0
2017-Aug-15 03:27N 38°43' W 009°07'0 0.0
2017-Aug-15 03:01N 38°43' W 009°07'0 0.0
2017-Aug-15 02:27N 38°43' W 009°07'0 0.0
2017-Aug-15 01:57N 38°43' W 009°07'0 0.0
2017-Aug-15 01:30N 38°43' W 009°07'0 0.0
2017-Aug-15 01:01N 38°43' W 009°07'0 0.0
2017-Aug-15 00:24N 38°43' W 009°07'0 0.0
2017-Aug-14 23:51N 38°43' W 009°07'0 0.0
2017-Aug-14 23:30N 38°43' W 009°07'0 0.0
2017-Aug-14 23:00N 38°43' W 009°07'0 0.0
2017-Aug-14 22:30N 38°43' W 009°07'0 0.0
2017-Aug-14 21:57N 38°43' W 009°07'0 0.0
2017-Aug-14 21:30N 38°43' W 009°07'0 0.0
2017-Aug-14 20:57N 38°43' W 009°07'0 0.0
2017-Aug-14 20:31N 38°43' W 009°07'0 0.0
2017-Aug-14 20:01N 38°43' W 009°07'0 0.0
2017-Aug-14 19:27N 38°43' W 009°07'0 0.0
2017-Aug-14 19:00N 38°43' W 009°07'0 0.0
2017-Aug-14 18:31N 38°43' W 009°07'0 0.0
2017-Aug-14 18:00N 38°43' W 009°07'0 0.0
2017-Aug-14 17:30N 38°43' W 009°07'0 0.0
2017-Aug-14 16:48N 38°43' W 009°07'0 0.0
2017-Aug-14 16:27N 38°43' W 009°07'0 0.0
2017-Aug-14 16:01N 38°43' W 009°07'0 0.0
2017-Aug-14 15:27N 38°43' W 009°07'0 0.0
2017-Aug-14 15:00N 38°43' W 009°07'0 0.0
2017-Aug-14 14:28N 38°43' W 009°07'0 0.0
2017-Aug-14 13:57N 38°43' W 009°07'0 0.0
2017-Aug-14 13:27N 38°43' W 009°07'0 0.0
2017-Aug-14 13:01N 38°43' W 009°07'0 0.0
2017-Aug-14 12:27N 38°43' W 009°07'0 0.0
2017-Aug-14 11:57N 38°43' W 009°07'0 0.0
2017-Aug-14 11:30N 38°43' W 009°07'0 0.0
2017-Aug-14 11:00N 38°43' W 009°07'0 0.0
2017-Aug-14 10:31N 38°43' W 009°07'0 0.0
2017-Aug-14 10:00N 38°43' W 009°07'0 0.0
2017-Aug-14 09:27N 38°43' W 009°07'0 0.0
2017-Aug-14 09:01N 38°43' W 009°07'0 0.0
2017-Aug-14 08:30N 38°43' W 009°07'0 0.0
2017-Aug-14 07:58N 38°43' W 009°07'0 0.0
2017-Aug-14 07:30N 38°43' W 009°07'0 0.0
2017-Aug-14 07:00N 38°43' W 009°07'0 0.0
2017-Aug-14 06:30N 38°43' W 009°07'0 0.0
2017-Aug-14 05:57N 38°43' W 009°07'0 0.0
2017-Aug-14 05:30N 38°43' W 009°07'0 0.0
2017-Aug-14 04:54N 38°43' W 009°07'0 0.0
2017-Aug-14 04:27N 38°43' W 009°07'0 0.0
2017-Aug-14 04:00N 38°43' W 009°07'0 0.0
2017-Aug-14 03:30N 38°43' W 009°07'0 0.0
2017-Aug-14 03:00N 38°43' W 009°07'0 0.0
2017-Aug-14 02:30N 38°43' W 009°07'0 0.0
2017-Aug-14 01:57N 38°43' W 009°07'0 0.0
2017-Aug-14 01:27N 38°43' W 009°07'0 0.0
2017-Aug-14 01:00N 38°43' W 009°07'0 0.0
2017-Aug-14 00:30N 38°43' W 009°07'0 0.0
2017-Aug-13 23:57N 38°43' W 009°07'0 0.0
2017-Aug-13 23:24N 38°43' W 009°07'0 0.0
2017-Aug-13 23:00N 38°43' W 009°07'0 0.0
2017-Aug-13 22:24N 38°43' W 009°07'0 0.0
2017-Aug-13 21:57N 38°43' W 009°07'0 0.0
2017-Aug-13 21:24N 38°43' W 009°07'0 0.0
2017-Aug-13 21:00N 38°43' W 009°07'0 0.0
2017-Aug-13 20:27N 38°43' W 009°07'0 0.0
2017-Aug-13 19:51N 38°43' W 009°07'0 0.0
2017-Aug-13 19:27N 38°43' W 009°07'0 0.0
2017-Aug-13 19:00N 38°43' W 009°07'0 0.0
2017-Aug-13 18:24N 38°43' W 009°07'0 0.0
2017-Aug-13 18:00N 38°43' W 009°07'0 0.0
2017-Aug-13 17:30N 38°43' W 009°07'0 0.0
2017-Aug-13 17:00N 38°43' W 009°07'0 0.0
2017-Aug-13 16:30N 38°43' W 009°07'0 0.0
2017-Aug-13 16:00N 38°43' W 009°07'0 0.0
2017-Aug-13 15:30N 38°43' W 009°07'0 0.0
2017-Aug-13 14:54N 38°43' W 009°07'0 0.0
2017-Aug-13 14:27N 38°43' W 009°07'0 0.0
2017-Aug-13 14:00N 38°43' W 009°07'0 0.0
2017-Aug-13 13:30N 38°43' W 009°07'0 0.0
2017-Aug-13 13:00N 38°43' W 009°07'0 0.0
2017-Aug-13 12:30N 38°43' W 009°07'0 0.0
2017-Aug-13 12:00N 38°43' W 009°07'0 0.0
2017-Aug-13 11:30N 38°43' W 009°07'0 0.0
2017-Aug-13 11:00N 38°43' W 009°07'0 0.0
2017-Aug-13 10:30N 38°43' W 009°07'0 0.0
2017-Aug-13 10:00N 38°43' W 009°07'0 0.0
2017-Aug-13 09:12N 38°43' W 009°07'0 0.0
2017-Aug-13 08:39N 38°43' W 009°07'0 0.0
2017-Aug-13 08:30N 38°43' W 009°07'0 0.0
2017-Aug-13 07:54N 38°43' W 009°07'0 0.0
2017-Aug-13 07:30N 38°43' W 009°07'0 0.0
2017-Aug-13 07:00N 38°43' W 009°07'0 0.0
2017-Aug-13 06:27N 38°43' W 009°07'0 0.0
2017-Aug-13 06:00N 38°43' W 009°07'0 0.0
2017-Aug-13 05:30N 38°43' W 009°07'0 0.0
2017-Aug-13 04:57N 38°43' W 009°07'0 0.0
2017-Aug-13 04:30N 38°43' W 009°07'0 0.0
2017-Aug-13 03:57N 38°43' W 009°07'0 0.0
2017-Aug-13 03:27N 38°43' W 009°07'0 0.0
2017-Aug-13 03:00N 38°43' W 009°07'0 0.0
2017-Aug-13 02:27N 38°43' W 009°07'0 0.0
2017-Aug-13 02:00N 38°43' W 009°07'0 0.0
2017-Aug-13 01:30N 38°43' W 009°07'0 0.0
2017-Aug-13 01:00N 38°43' W 009°07'0 0.0
2017-Aug-13 00:30N 38°43' W 009°07'0 0.0
2017-Aug-13 00:00N 38°43' W 009°07'0 0.0
2017-Aug-12 23:30N 38°43' W 009°07'0 0.0
2017-Aug-12 23:00N 38°43' W 009°07'0 0.0
2017-Aug-12 22:30N 38°43' W 009°07'0 0.0
2017-Aug-12 22:00N 38°43' W 009°07'0 0.0
2017-Aug-12 21:30N 38°43' W 009°07'0 0.0
2017-Aug-12 21:00N 38°43' W 009°07'0 0.0
2017-Aug-12 20:30N 38°43' W 009°07'0 0.0
2017-Aug-12 20:00N 38°43' W 009°07'0 0.0
2017-Aug-12 19:30N 38°43' W 009°07'0 0.0
2017-Aug-12 19:00N 38°43' W 009°07'0 0.0
2017-Aug-12 18:30N 38°43' W 009°07'0 0.0
2017-Aug-12 18:00N 38°43' W 009°07'0 0.0
2017-Aug-12 17:30N 38°43' W 009°07'0 0.0
2017-Aug-12 17:00N 38°43' W 009°07'0 0.0
2017-Aug-12 16:30N 38°43' W 009°07'0 0.0
2017-Aug-12 16:00N 38°43' W 009°07'1 1.9
2017-Aug-12 15:30N 38°42' W 009°08'4 8.1
2017-Aug-12 15:00N 38°41' W 009°13'2 3.3
2017-Aug-12 14:30N 38°41' W 009°15'4 7.3
2017-Aug-12 14:00N 38°40' W 009°19'5 9.5
2017-Aug-12 13:30N 38°37' W 009°23'510.3
2017-Aug-12 13:00N 38°31' W 009°24'713.1
2017-Aug-12 12:30N 38°25' W 009°24'713.5
2017-Aug-12 12:00N 38°18' W 009°23'713.4
2017-Aug-12 11:30N 38°11' W 009°23'713.5
2017-Aug-12 11:00N 38°05' W 009°23'713.5
2017-Aug-12 10:30N 37°58' W 009°22'713.3
2017-Aug-12 10:00N 37°51' W 009°22'713.2
2017-Aug-12 09:30N 37°45' W 009°22'713.5
2017-Aug-12 09:00N 37°38' W 009°21'713.1
2017-Aug-12 08:30N 37°31' W 009°21'713.6
2017-Aug-12 08:00N 37°25' W 009°21'714.0
2017-Aug-12 07:30N 37°18' W 009°20'713.9
2017-Aug-12 07:00N 37°11' W 009°20'714.0
2017-Aug-12 06:31N 37°04' W 009°20'713.7
2017-Aug-12 06:00N 36°57' W 009°19'714.8
2017-Aug-12 05:30N 36°50' W 009°15'815.8
2017-Aug-12 05:00N 36°45' W 009°09'815.5
2017-Aug-12 04:29N 36°42' W 008°59'815.6
2017-Aug-12 03:58N 36°40' W 008°49'2615.7
2017-Aug-12 02:17N 36°31' W 008°18'1015.9
2017-Aug-12 01:41N 36°28' W 008°07'315.8
2017-Aug-12 01:28N 36°27' W 008°03'12215.2
2017-Aug-11 17:26N 35°58' W 005°36'4 0.4
2017-Aug-11 07:24N 35°54' W 005°33'0 0.2
2017-Aug-11 05:35N 35°54' W 005°33'0 1.5
2017-Aug-11 05:31N 35°54' W 005°33'1 0.1
2017-Aug-10 12:42N 35°53' W 005°34'0 0.1
2017-Aug-10 12:30N 35°53' W 005°34'2 0.1
2017-Aug-09 08:36N 35°55' W 005°34'614.3
2017-Aug-09 08:12N 35°54' W 005°41'313.9
2017-Aug-09 07:59N 35°54' W 005°45'613.5
2017-Aug-09 07:30N 35°54' W 005°52'1617.5
2017-Aug-09 06:37N 35°54' W 006°12'8315.9
2017-Aug-09 01:22N 34°56' W 007°25'1715.6
2017-Aug-09 00:15N 34°44' W 007°41'415.6
2017-Aug-09 00:00N 34°41' W 007°44'1115.5
2017-Aug-08 23:19N 34°34' W 007°53'515.7
2017-Aug-08 23:00N 34°30' W 007°58'1015.6
2017-Aug-08 22:23N 34°23' W 008°06'615.3
2017-Aug-08 22:00N 34°20' W 008°11'1715.4
2017-Aug-08 20:52N 34°08' W 008°26'615.4
2017-Aug-08 20:30N 34°03' W 008°31'815.3
2017-Aug-08 20:00N 33°58' W 008°38'  
Track history (hours):
 
Tides and Currents Weather Stations Pressure Air Temp Water Temp Dewpoint Dewpoint Depression Visibility Wind Speed Wind Dir Waves Ship Positions

Windhoek

Last reported at 2017-Aug-18 19:42 UTC. Time now 2017-Aug-19 05:27 UTC.
Position N 36°44' W 011°38'.

Length 172 m; draft 9.5 m.

Type: Ship (hazmat cat C). MMSI: 370431000.

Date/timePositionNaut miles runAvg speedWind from/ knotsBaromVisibWave heightAir tempDewpointWater temp
2017-Aug-18 19:42N 36°44' W 011°38'315.2
2017-Aug-18 19:30N 36°47' W 011°36'3615.1
2017-Aug-18 17:06N 37°19' W 011°16'318.0
2017-Aug-18 16:54N 37°22' W 011°14'1116.5
2017-Aug-18 16:13N 37°32' W 011°07'314.4
2017-Aug-18 16:00N 37°35' W 011°06'815.3
2017-Aug-18 15:30N 37°42' W 011°01'815.3
2017-Aug-18 15:00N 37°49' W 010°57'1515.5
2017-Aug-18 14:00N 38°02' W 010°48'815.3
2017-Aug-18 13:30N 38°09' W 010°43'815.3
2017-Aug-18 13:00N 38°16' W 010°39'714.9
2017-Aug-18 12:30N 38°23' W 010°35'715.0
2017-Aug-18 12:00N 38°29' W 010°30'814.9
2017-Aug-18 11:28N 38°36' W 010°26'714.7
2017-Aug-18 11:00N 38°43' W 010°22'714.0
2017-Aug-18 10:30N 38°49' W 010°18'713.8
2017-Aug-18 10:00N 38°55' W 010°14'713.8
2017-Aug-18 09:30N 39°01' W 010°10'714.1
2017-Aug-18 09:00N 39°07' W 010°06'714.0
2017-Aug-18 08:30N 39°14' W 010°02'714.5
2017-Aug-18 08:00N 39°20' W 009°58'714.2
2017-Aug-18 07:30N 39°27' W 009°54'714.4
2017-Aug-18 07:00N 39°33' W 009°49'714.0
2017-Aug-18 06:30N 39°39' W 009°45'714.1
2017-Aug-18 05:59N 39°46' W 009°41'3514.1
2017-Aug-18 03:32N 40°16' W 009°19'3914.1
2017-Aug-18 00:46N 40°51' W 008°57'19 0.4
2017-Aug-16 05:14N 41°08' W 008°47'0 0.1
2017-Aug-16 05:00N 41°08' W 008°47'15 7.2
2017-Aug-16 02:55N 40°55' W 008°53'713.4
2017-Aug-16 02:23N 40°48' W 008°57'513.6
2017-Aug-16 02:00N 40°43' W 008°60'713.6
2017-Aug-16 01:30N 40°37' W 009°03'713.8
2017-Aug-16 01:00N 40°31' W 009°07'1313.6
2017-Aug-16 00:03N 40°19' W 009°14'113.6
2017-Aug-15 23:58N 40°18' W 009°15'713.6
2017-Aug-15 23:26N 40°11' W 009°19'613.3
2017-Aug-15 23:00N 40°06' W 009°22'713.1
2017-Aug-15 22:29N 39°60' W 009°26'613.2
2017-Aug-15 22:00N 39°54' W 009°29'613.0
2017-Aug-15 21:31N 39°48' W 009°33'713.2
2017-Aug-15 21:01N 39°42' W 009°36'713.2
2017-Aug-15 20:30N 39°36' W 009°40'612.9
2017-Aug-15 20:01N 39°30' W 009°43'713.3
2017-Aug-15 19:31N 39°24' W 009°47'713.4
2017-Aug-15 19:00N 39°18' W 009°50'713.3
2017-Aug-15 18:31N 39°12' W 009°51'713.5
2017-Aug-15 18:00N 39°05' W 009°51'713.5
2017-Aug-15 17:30N 38°58' W 009°51'713.6
2017-Aug-15 17:01N 38°51' W 009°51'917.5
2017-Aug-15 16:31N 38°43' W 009°51'816.3
2017-Aug-15 16:00N 38°37' W 009°43'816.1
2017-Aug-15 15:30N 38°36' W 009°32'713.1
2017-Aug-15 15:00N 38°37' W 009°24'612.2
2017-Aug-15 14:30N 38°40' W 009°18'4 7.2
2017-Aug-15 14:00N 38°41' W 009°14'510.4
2017-Aug-15 13:30N 38°43' W 009°07'1 0.9
2017-Aug-15 12:58N 38°43' W 009°07'0 0.0
2017-Aug-15 12:30N 38°43' W 009°07'0 0.0
2017-Aug-15 11:58N 38°43' W 009°07'0 0.0
2017-Aug-15 11:28N 38°43' W 009°07'0 0.0
2017-Aug-15 11:00N 38°43' W 009°07'0 0.0
2017-Aug-15 10:30N 38°43' W 009°07'0 0.0
2017-Aug-15 09:54N 38°43' W 009°07'0 0.0
2017-Aug-15 09:27N 38°43' W 009°07'0 0.0
2017-Aug-15 09:00N 38°43' W 009°07'0 0.0
2017-Aug-15 08:28N 38°43' W 009°07'0 0.0
2017-Aug-15 08:01N 38°43' W 009°07'0 0.0
2017-Aug-15 07:16N 38°43' W 009°07'0 0.0
2017-Aug-15 06:57N 38°43' W 009°07'0 0.0
2017-Aug-15 06:30N 38°43' W 009°07'0 0.0
2017-Aug-15 06:00N 38°43' W 009°07'0 0.0
2017-Aug-15 05:22N 38°43' W 009°07'0 0.0
2017-Aug-15 05:00N 38°43' W 009°07'0 0.0
2017-Aug-15 04:27N 38°43' W 009°07'0 0.0
2017-Aug-15 04:00N 38°43' W 009°07'0 0.0
2017-Aug-15 03:27N 38°43' W 009°07'0 0.0
2017-Aug-15 03:01N 38°43' W 009°07'0 0.0
2017-Aug-15 02:27N 38°43' W 009°07'0 0.0
2017-Aug-15 01:57N 38°43' W 009°07'0 0.0
2017-Aug-15 01:30N 38°43' W 009°07'0 0.0
2017-Aug-15 01:01N 38°43' W 009°07'0 0.0
2017-Aug-15 00:24N 38°43' W 009°07'0 0.0
2017-Aug-14 23:51N 38°43' W 009°07'0 0.0
2017-Aug-14 23:30N 38°43' W 009°07'0 0.0
2017-Aug-14 23:00N 38°43' W 009°07'0 0.0
2017-Aug-14 22:30N 38°43' W 009°07'0 0.0
2017-Aug-14 21:57N 38°43' W 009°07'0 0.0
2017-Aug-14 21:30N 38°43' W 009°07'0 0.0
2017-Aug-14 20:57N 38°43' W 009°07'0 0.0
2017-Aug-14 20:31N 38°43' W 009°07'0 0.0
2017-Aug-14 20:01N 38°43' W 009°07'0 0.0
2017-Aug-14 19:27N 38°43' W 009°07'0 0.0
2017-Aug-14 19:00N 38°43' W 009°07'0 0.0
2017-Aug-14 18:31N 38°43' W 009°07'0 0.0
2017-Aug-14 18:00N 38°43' W 009°07'0 0.0
2017-Aug-14 17:30N 38°43' W 009°07'0 0.0
2017-Aug-14 16:48N 38°43' W 009°07'0 0.0
2017-Aug-14 16:27N 38°43' W 009°07'0 0.0
2017-Aug-14 16:01N 38°43' W 009°07'0 0.0
2017-Aug-14 15:27N 38°43' W 009°07'0 0.0
2017-Aug-14 15:00N 38°43' W 009°07'0 0.0
2017-Aug-14 14:28N 38°43' W 009°07'0 0.0
2017-Aug-14 13:57N 38°43' W 009°07'0 0.0
2017-Aug-14 13:27N 38°43' W 009°07'0 0.0
2017-Aug-14 13:01N 38°43' W 009°07'0 0.0
2017-Aug-14 12:27N 38°43' W 009°07'0 0.0
2017-Aug-14 11:57N 38°43' W 009°07'0 0.0
2017-Aug-14 11:30N 38°43' W 009°07'0 0.0
2017-Aug-14 11:00N 38°43' W 009°07'0 0.0
2017-Aug-14 10:31N 38°43' W 009°07'0 0.0
2017-Aug-14 10:00N 38°43' W 009°07'0 0.0
2017-Aug-14 09:27N 38°43' W 009°07'0 0.0
2017-Aug-14 09:01N 38°43' W 009°07'0 0.0
2017-Aug-14 08:30N 38°43' W 009°07'0 0.0
2017-Aug-14 07:58N 38°43' W 009°07'0 0.0
2017-Aug-14 07:30N 38°43' W 009°07'0 0.0
2017-Aug-14 07:00N 38°43' W 009°07'0 0.0
2017-Aug-14 06:30N 38°43' W 009°07'0 0.0
2017-Aug-14 05:57N 38°43' W 009°07'0 0.0
2017-Aug-14 05:30N 38°43' W 009°07'0 0.0
2017-Aug-14 04:54N 38°43' W 009°07'0 0.0
2017-Aug-14 04:27N 38°43' W 009°07'0 0.0
2017-Aug-14 04:00N 38°43' W 009°07'0 0.0
2017-Aug-14 03:30N 38°43' W 009°07'0 0.0
2017-Aug-14 03:00N 38°43' W 009°07'0 0.0
2017-Aug-14 02:30N 38°43' W 009°07'0 0.0
2017-Aug-14 01:57N 38°43' W 009°07'0 0.0
2017-Aug-14 01:27N 38°43' W 009°07'0 0.0
2017-Aug-14 01:00N 38°43' W 009°07'0 0.0
2017-Aug-14 00:30N 38°43' W 009°07'0 0.0
2017-Aug-13 23:57N 38°43' W 009°07'0 0.0
2017-Aug-13 23:24N 38°43' W 009°07'0 0.0
2017-Aug-13 23:00N 38°43' W 009°07'0 0.0
2017-Aug-13 22:24N 38°43' W 009°07'0 0.0
2017-Aug-13 21:57N 38°43' W 009°07'0 0.0
2017-Aug-13 21:24N 38°43' W 009°07'0 0.0
2017-Aug-13 21:00N 38°43' W 009°07'0 0.0
2017-Aug-13 20:27N 38°43' W 009°07'0 0.0
2017-Aug-13 19:51N 38°43' W 009°07'0 0.0
2017-Aug-13 19:27N 38°43' W 009°07'0 0.0
2017-Aug-13 19:00N 38°43' W 009°07'0 0.0
2017-Aug-13 18:24N 38°43' W 009°07'0 0.0
2017-Aug-13 18:00N 38°43' W 009°07'0 0.0
2017-Aug-13 17:30N 38°43' W 009°07'0 0.0
2017-Aug-13 17:00N 38°43' W 009°07'0 0.0
2017-Aug-13 16:30N 38°43' W 009°07'0 0.0
2017-Aug-13 16:00N 38°43' W 009°07'0 0.0
2017-Aug-13 15:30N 38°43' W 009°07'0 0.0
2017-Aug-13 14:54N 38°43' W 009°07'0 0.0
2017-Aug-13 14:27N 38°43' W 009°07'0 0.0
2017-Aug-13 14:00N 38°43' W 009°07'0 0.0
2017-Aug-13 13:30N 38°43' W 009°07'0 0.0
2017-Aug-13 13:00N 38°43' W 009°07'0 0.0
2017-Aug-13 12:30N 38°43' W 009°07'0 0.0
2017-Aug-13 12:00N 38°43' W 009°07'0 0.0
2017-Aug-13 11:30N 38°43' W 009°07'0 0.0
2017-Aug-13 11:00N 38°43' W 009°07'0 0.0
2017-Aug-13 10:30N 38°43' W 009°07'0 0.0
2017-Aug-13 10:00N 38°43' W 009°07'0 0.0
2017-Aug-13 09:12N 38°43' W 009°07'0 0.0
2017-Aug-13 08:39N 38°43' W 009°07'0 0.0
2017-Aug-13 08:30N 38°43' W 009°07'0 0.0
2017-Aug-13 07:54N 38°43' W 009°07'0 0.0
2017-Aug-13 07:30N 38°43' W 009°07'0 0.0
2017-Aug-13 07:00N 38°43' W 009°07'0 0.0
2017-Aug-13 06:27N 38°43' W 009°07'0 0.0
2017-Aug-13 06:00N 38°43' W 009°07'0 0.0
2017-Aug-13 05:30N 38°43' W 009°07'0 0.0
2017-Aug-13 04:57N 38°43' W 009°07'0 0.0
2017-Aug-13 04:30N 38°43' W 009°07'0 0.0
2017-Aug-13 03:57N 38°43' W 009°07'0 0.0
2017-Aug-13 03:27N 38°43' W 009°07'0 0.0
2017-Aug-13 03:00N 38°43' W 009°07'0 0.0
2017-Aug-13 02:27N 38°43' W 009°07'0 0.0
2017-Aug-13 02:00N 38°43' W 009°07'0 0.0
2017-Aug-13 01:30N 38°43' W 009°07'0 0.0
2017-Aug-13 01:00N 38°43' W 009°07'0 0.0
2017-Aug-13 00:30N 38°43' W 009°07'0 0.0
2017-Aug-13 00:00N 38°43' W 009°07'0 0.0
2017-Aug-12 23:30N 38°43' W 009°07'0 0.0
2017-Aug-12 23:00N 38°43' W 009°07'0 0.0
2017-Aug-12 22:30N 38°43' W 009°07'0 0.0
2017-Aug-12 22:00N 38°43' W 009°07'0 0.0
2017-Aug-12 21:30N 38°43' W 009°07'0 0.0
2017-Aug-12 21:00N 38°43' W 009°07'0 0.0
2017-Aug-12 20:30N 38°43' W 009°07'0 0.0
2017-Aug-12 20:00N 38°43' W 009°07'0 0.0
2017-Aug-12 19:30N 38°43' W 009°07'0 0.0
2017-Aug-12 19:00N 38°43' W 009°07'0 0.0
2017-Aug-12 18:30N 38°43' W 009°07'0 0.0
2017-Aug-12 18:00N 38°43' W 009°07'0 0.0
2017-Aug-12 17:30N 38°43' W 009°07'0 0.0
2017-Aug-12 17:00N 38°43' W 009°07'0 0.0
2017-Aug-12 16:30N 38°43' W 009°07'0 0.0
2017-Aug-12 16:00N 38°43' W 009°07'1 1.9
2017-Aug-12 15:30N 38°42' W 009°08'4 8.1
2017-Aug-12 15:00N 38°41' W 009°13'2 3.3
2017-Aug-12 14:30N 38°41' W 009°15'4 7.3
2017-Aug-12 14:00N 38°40' W 009°19'5 9.5
2017-Aug-12 13:30N 38°37' W 009°23'510.3
2017-Aug-12 13:00N 38°31' W 009°24'713.1
2017-Aug-12 12:30N 38°25' W 009°24'713.5
2017-Aug-12 12:00N 38°18' W 009°23'713.4
2017-Aug-12 11:30N 38°11' W 009°23'713.5
2017-Aug-12 11:00N 38°05' W 009°23'713.5
2017-Aug-12 10:30N 37°58' W 009°22'713.3
2017-Aug-12 10:00N 37°51' W 009°22'713.2
2017-Aug-12 09:30N 37°45' W 009°22'713.5
2017-Aug-12 09:00N 37°38' W 009°21'713.1
2017-Aug-12 08:30N 37°31' W 009°21'713.6
2017-Aug-12 08:00N 37°25' W 009°21'714.0
2017-Aug-12 07:30N 37°18' W 009°20'713.9
2017-Aug-12 07:00N 37°11' W 009°20'714.0
2017-Aug-12 06:31N 37°04' W 009°20'713.7
2017-Aug-12 06:00N 36°57' W 009°19'714.8
2017-Aug-12 05:30N 36°50' W 009°15'815.8
2017-Aug-12 05:00N 36°45' W 009°09'815.5
2017-Aug-12 04:29N 36°42' W 008°59'815.6
2017-Aug-12 03:58N 36°40' W 008°49'2615.7
2017-Aug-12 02:17N 36°31' W 008°18'1015.9
2017-Aug-12 01:41N 36°28' W 008°07'315.8
2017-Aug-12 01:28N 36°27' W 008°03'12215.2
2017-Aug-11 17:26N 35°58' W 005°36'4 0.4
2017-Aug-11 07:24N 35°54' W 005°33'0 0.2
2017-Aug-11 05:35N 35°54' W 005°33'0 1.5
2017-Aug-11 05:31N 35°54' W 005°33'1 0.1
2017-Aug-10 12:42N 35°53' W 005°34'0 0.1
2017-Aug-10 12:30N 35°53' W 005°34'2 0.1
2017-Aug-09 08:36N 35°55' W 005°34'614.3
2017-Aug-09 08:12N 35°54' W 005°41'313.9
2017-Aug-09 07:59N 35°54' W 005°45'613.5
2017-Aug-09 07:30N 35°54' W 005°52'1617.5
2017-Aug-09 06:37N 35°54' W 006°12'8315.9
2017-Aug-09 01:22N 34°56' W 007°25'1715.6
2017-Aug-09 00:15N 34°44' W 007°41'415.6
2017-Aug-09 00:00N 34°41' W 007°44'1115.5
2017-Aug-08 23:19N 34°34' W 007°53'515.7
2017-Aug-08 23:00N 34°30' W 007°58'1015.6
2017-Aug-08 22:23N 34°23' W 008°06'615.3
2017-Aug-08 22:00N 34°20' W 008°11'1715.4
2017-Aug-08 20:52N 34°08' W 008°26'615.4
2017-Aug-08 20:30N 34°03' W 008°31'815.3
2017-Aug-08 20:00N 33°58' W 008°38'  

Dump ship's entire track history